メインページ
METAR-TAF:

METAR-TAF

空港 :

仁川国際空港, 大韓民国

緯度: 37-28N, 経度: 126-27E, 海抜: 7m

現時点の気象観測

当レポートは32分前の20:30(UTC)に作成
西/南西の風 3kt
気温 4°C
湿度 87%
気圧 1023 hPa
視程: 4500m

METAR: RKSI 292030Z 25003KT 4500 BR NSC 04/02 Q1023 NOSIG

時間: 06:02 (21:02 UTC)

予報

当レポートは4時間2分前の17:00(UTC)に作成
予報は29日の 18時(UTC)から 30日の 24時(UTC)まで有効
北/北西の風 6kt
視程: 4200m
高度3000ftの雲はほとんどない
高度18000ftの千切れ雲あり
30日の 00時(UTC)から 30日の 01時(UTC)まで徐々に
西の風 10kt
視程: 6000m
30日の 12時(UTC)から 30日の 13時(UTC)まで徐々に
北/北西の風 6kt
30日の 21時(UTC)から 30日の 22時(UTC)まで徐々に
東/南東の風 7kt

TAF: RKSI 291700Z 2918/3024 34006KT 4200 BR FEW030 BKN180 TN03/2922Z TX12/3005Z TN05/3022Z BECMG 3000/3001 27010KT 6000 NSW BECMG 3012/3013 34006KT BECMG 3021/3022 12007KT

4,000以上の空港の気象観測と天気予報(METAR報とTAF報)

利用可能な観測所は地図上に黄色い丸と赤い丸で示す。

丸の上にカーソルを重ねると観測所名を参照できる。

次にクリックすると気象観測と天気予報を参照できる。

マップの切り替え:黒色「×」印の緑ボタンをクリックして拡大、「-」印の緑ボタンをクリックして縮小、緑色の三角印をクリックして隣りの地図に切り替え


METAR-TAF: